Time;durP1;ratioP1;P1;durP2;ratioP2;P2;SDS_P1;SDS_P2;PMS_P1;PMS_P2;Temp;Humidity;BMP_temperature;BMP_pressure;BME280_temperature;BME280_humidity;BME280_pressure;Samples;Min_cycle;Max_cycle;Signal;HPM_P1;HPM_P2
2022/07/09 00:00:02;;;;;;;3.05;1.42;;;;;;;14.84;100.00;101735.22;5170076;28;20034;-74
2022/07/09 00:02:34;;;;;;;3.55;1.42;;;;;;;15.01;100.00;101732.84;5167062;28;20034;-74
2022/07/09 00:05:05;;;;;;;4.15;1.40;;;;;;;15.14;100.00;101730.63;5171462;28;20034;-72
2022/07/09 00:07:35;;;;;;;4.97;1.50;;;;;;;15.07;100.00;101732.66;5170698;28;20022;-74
2022/07/09 00:10:06;;;;;;;2.88;1.60;;;;;;;15.10;100.00;101731.66;5168722;28;20270;-75
2022/07/09 00:12:36;;;;;;;3.58;1.80;;;;;;;14.97;100.00;101733.88;5158735;28;20057;-75
2022/07/09 00:15:07;;;;;;;5.35;1.80;;;;;;;15.00;100.00;101738.19;5167320;28;20088;-74
2022/07/09 00:17:37;;;;;;;4.00;1.75;;;;;;;14.84;100.00;101737.84;5169932;28;20034;-74
2022/07/09 00:20:08;;;;;;;6.28;2.38;;;;;;;14.67;100.00;101730.56;5169973;28;20029;-74
2022/07/09 00:22:39;;;;;;;4.00;1.92;;;;;;;14.36;100.00;101735.13;5170951;28;20117;-75
2022/07/09 00:25:09;;;;;;;6.10;2.10;;;;;;;14.37;100.00;101734.22;5169809;28;20093;-74
2022/07/09 00:27:39;;;;;;;4.72;2.08;;;;;;;14.47;100.00;101733.00;5170348;28;20060;-74
2022/07/09 00:30:10;;;;;;;3.47;1.67;;;;;;;14.47;100.00;101725.13;5169742;28;20564;-75
2022/07/09 00:32:40;;;;;;;3.00;1.92;;;;;;;14.58;100.00;101734.38;5171279;28;20483;-74
2022/07/09 00:35:11;;;;;;;5.25;1.83;;;;;;;14.81;100.00;101723.94;5169464;28;20124;-74
2022/07/09 00:37:41;;;;;;;5.57;1.67;;;;;;;14.90;100.00;101729.75;5170752;28;20080;-74
2022/07/09 00:40:11;;;;;;;5.95;1.80;;;;;;;14.89;100.00;101727.16;5168943;28;20268;-74
2022/07/09 00:42:42;;;;;;;2.72;1.50;;;;;;;14.85;100.00;101726.41;5168128;28;20076;-75
2022/07/09 00:45:12;;;;;;;2.72;1.70;;;;;;;14.84;100.00;101724.69;5169119;28;20044;-74
2022/07/09 00:47:43;;;;;;;5.63;2.10;;;;;;;14.82;100.00;101714.25;5171398;28;20041;-74
2022/07/09 00:50:13;;;;;;;5.30;1.90;;;;;;;14.71;100.00;101722.53;5168837;28;20052;-75
2022/07/09 00:52:45;;;;;;;4.88;1.75;;;;;;;14.58;100.00;101720.38;5170705;28;20513;-74
2022/07/09 00:55:15;;;;;;;4.20;2.42;;;;;;;14.61;100.00;101720.25;5168788;28;20018;-74
2022/07/09 00:57:47;;;;;;;3.40;1.83;;;;;;;14.66;100.00;101713.06;5171748;28;20391;-74
2022/07/09 01:00:18;;;;;;;3.78;2.00;;;;;;;14.73;100.00;101709.34;5168292;28;20046;-74
2022/07/09 01:02:49;;;;;;;5.55;2.05;;;;;;;14.76;100.00;101710.06;5172111;28;20033;-75
2022/07/09 01:05:19;;;;;;;4.25;1.80;;;;;;;14.83;100.00;101720.31;5163427;28;20346;-74
2022/07/09 01:07:50;;;;;;;5.97;2.13;;;;;;;14.93;100.00;101715.59;5165167;28;20484;-75
2022/07/09 01:10:21;;;;;;;5.10;1.90;;;;;;;14.91;100.00;101715.66;5169356;28;20104;-74
2022/07/09 01:12:51;;;;;;;7.82;2.20;;;;;;;14.99;100.00;101718.88;5166962;28;20639;-75
2022/07/09 01:15:21;;;;;;;4.38;2.15;;;;;;;14.97;100.00;101718.09;5171459;28;20041;-74
2022/07/09 01:17:52;;;;;;;5.90;2.47;;;;;;;14.99;100.00;101718.03;5167807;28;20428;-75
2022/07/09 01:20:23;;;;;;;8.68;2.15;;;;;;;15.08;100.00;101715.94;5171210;28;20024;-74
2022/07/09 01:22:53;;;;;;;5.80;2.08;;;;;;;15.06;100.00;101709.88;5168241;28;20408;-74
2022/07/09 01:25:41;;;;;;;10.45;2.40;;;;;;;14.75;100.00;101708.34;5170909;28;20022;-75
2022/07/09 01:28:12;;;;;;;5.95;2.15;;;;;;;14.75;100.00;101707.50;5171579;28;20025;-74
2022/07/09 01:30:42;;;;;;;6.38;2.47;;;;;;;14.64;100.00;101710.50;5172799;28;20572;-74
2022/07/09 01:33:13;;;;;;;8.23;2.25;;;;;;;14.78;100.00;101707.41;5175132;28;20109;-74
2022/07/09 01:35:43;;;;;;;7.22;2.55;;;;;;;14.89;100.00;101709.59;5170158;28;20058;-75
2022/07/09 01:38:13;;;;;;;5.97;1.80;;;;;;;14.90;100.00;101700.78;5171661;28;20124;-74
2022/07/09 01:40:43;;;;;;;8.00;2.78;;;;;;;14.84;100.00;101698.34;5169564;28;20030;-74
2022/07/09 01:43:14;;;;;;;9.50;2.58;;;;;;;14.65;100.00;101700.81;5173793;28;20038;-74
2022/07/09 01:45:44;;;;;;;8.15;2.58;;;;;;;15.03;100.00;101694.16;5171375;28;20030;-74
2022/07/09 01:48:15;;;;;;;7.75;2.30;;;;;;;14.95;100.00;101698.84;5174754;28;20018;-75
2022/07/09 01:50:45;;;;;;;9.30;2.10;;;;;;;15.07;100.00;101687.88;5171677;28;20034;-75
2022/07/09 01:53:15;;;;;;;10.25;2.70;;;;;;;15.42;100.00;101692.75;5174940;28;20032;-75
2022/07/09 01:55:46;;;;;;;9.23;2.88;;;;;;;15.48;100.00;101691.63;5171985;28;20038;-74
2022/07/09 01:58:16;;;;;;;8.35;3.13;;;;;;;15.56;100.00;101694.84;5174767;28;20057;-74
2022/07/09 02:00:46;;;;;;;12.55;3.20;;;;;;;15.71;100.00;101689.00;5171364;28;20121;-74
2022/07/09 02:03:17;;;;;;;6.25;2.72;;;;;;;15.81;100.00;101679.78;5175318;28;20025;-74
2022/07/09 02:05:47;;;;;;;14.40;3.72;;;;;;;15.90;100.00;101682.91;5169487;28;20030;-75
2022/07/09 02:08:18;;;;;;;12.32;3.05;;;;;;;15.97;100.00;101684.41;5172057;28;20057;-74
2022/07/09 02:10:50;;;;;;;8.15;2.72;;;;;;;16.01;100.00;101671.97;5168175;28;20710;-74
2022/07/09 02:13:20;;;;;;;9.55;2.67;;;;;;;15.93;100.00;101669.66;5168477;28;20488;-74
2022/07/09 02:15:50;;;;;;;12.27;2.78;;;;;;;15.86;100.00;101670.78;5175019;28;20044;-75
2022/07/09 02:18:21;;;;;;;6.80;2.40;;;;;;;15.88;100.00;101663.66;5169976;28;20034;-74
2022/07/09 02:20:51;;;;;;;8.15;2.50;;;;;;;15.79;100.00;101661.41;5174631;28;20041;-74
2022/07/09 02:23:23;;;;;;;9.27;2.45;;;;;;;15.65;100.00;101658.47;5171443;28;20030;-74
2022/07/09 02:25:53;;;;;;;5.80;2.58;;;;;;;15.71;100.00;101660.84;5174515;28;20056;-75
2022/07/09 02:28:24;;;;;;;12.88;2.75;;;;;;;15.66;100.00;101660.16;5170981;28;20022;-75
2022/07/09 02:30:54;;;;;;;8.93;2.40;;;;;;;15.66;100.00;101657.53;5174258;28;20404;-74
2022/07/09 02:33:25;;;;;;;10.25;2.70;;;;;;;15.51;100.00;101655.50;5171631;28;20026;-74
2022/07/09 02:35:55;;;;;;;7.80;2.53;;;;;;;15.61;100.00;101656.00;5172456;28;20037;-75
2022/07/09 02:38:26;;;;;;;8.60;2.90;;;;;;;15.65;100.00;101655.81;5170834;28;20053;-75
2022/07/09 02:40:56;;;;;;;9.77;2.78;;;;;;;15.57;100.00;101660.50;5168166;28;20042;-75
2022/07/09 02:43:27;;;;;;;8.60;2.60;;;;;;;15.68;100.00;101653.06;5172221;28;20338;-75
2022/07/09 02:45:58;;;;;;;7.15;2.47;;;;;;;15.52;100.00;101657.22;5171808;28;20593;-75
2022/07/09 02:48:28;;;;;;;8.45;2.90;;;;;;;15.45;100.00;101663.66;5172759;28;20034;-75
2022/07/09 02:51:00;;;;;;;8.85;2.60;;;;;;;15.55;100.00;101657.09;5172179;28;20060;-75
2022/07/09 02:53:30;;;;;;;8.82;2.80;;;;;;;15.59;100.00;101658.72;5172668;28;20076;-75
2022/07/09 02:56:00;;;;;;;7.18;2.72;;;;;;;15.70;100.00;101656.50;5172180;28;20030;-75
2022/07/09 02:58:31;;;;;;;11.05;2.78;;;;;;;15.70;100.00;101651.22;5171872;28;20029;-74
2022/07/09 03:01:05;;;;;;;7.30;2.72;;;;;;;15.63;100.00;101651.53;5171549;28;20113;-75
2022/07/09 03:03:35;;;;;;;8.00;2.85;;;;;;;15.65;100.00;101653.19;5172055;28;20034;-75
2022/07/09 03:06:08;;;;;;;10.25;2.78;;;;;;;15.64;100.00;101661.13;5170430;28;20032;-73
2022/07/09 03:08:38;;;;;;;8.05;2.58;;;;;;;15.64;100.00;101663.78;5168212;28;20043;-75
2022/07/09 03:11:09;;;;;;;12.73;2.95;;;;;;;15.85;100.00;101662.97;5170766;28;20642;-75
2022/07/09 03:13:39;;;;;;;11.82;2.90;;;;;;;15.85;100.00;101655.06;5169805;28;20650;-75
2022/07/09 03:16:09;;;;;;;9.15;2.78;;;;;;;15.77;100.00;101657.97;5172904;28;20091;-74
2022/07/09 03:18:40;;;;;;;10.23;2.75;;;;;;;15.64;100.00;101659.38;5170947;28;20261;-74
2022/07/09 03:21:11;;;;;;;9.85;2.80;;;;;;;15.67;100.00;101656.63;5173120;28;20110;-74
2022/07/09 03:23:41;;;;;;;9.85;2.90;;;;;;;15.72;100.00;101657.28;5170963;28;20018;-75
2022/07/09 03:26:11;;;;;;;10.65;3.03;;;;;;;15.84;100.00;101658.59;5172786;28;20384;-72
2022/07/09 03:28:42;;;;;;;6.95;2.75;;;;;;;15.83;100.00;101663.00;5170694;28;20218;-75
2022/07/09 03:31:12;;;;;;;10.75;2.90;;;;;;;16.07;100.00;101662.00;5171375;28;20029;-75
2022/07/09 03:33:42;;;;;;;7.63;2.70;;;;;;;16.14;100.00;101663.50;5170817;28;20045;-75
2022/07/09 03:36:13;;;;;;;6.85;2.85;;;;;;;15.97;100.00;101657.16;5172469;28;20062;-75
2022/07/09 03:38:43;;;;;;;9.07;2.65;;;;;;;15.98;100.00;101662.41;5169435;28;20022;-75
2022/07/09 03:41:13;;;;;;;11.38;2.92;;;;;;;15.91;100.00;101663.53;5170110;28;20034;-74
2022/07/09 03:43:44;;;;;;;13.20;3.30;;;;;;;16.04;100.00;101659.50;5169481;28;20030;-74
2022/07/09 03:46:14;;;;;;;10.60;3.05;;;;;;;15.91;100.00;101650.34;5171455;28;20021;-74
2022/07/09 03:48:46;;;;;;;11.05;2.65;;;;;;;15.91;100.00;101653.00;5169979;28;20408;-74
2022/07/09 03:51:16;;;;;;;10.25;3.22;;;;;;;16.00;100.00;101650.00;5172713;28;20029;-74
2022/07/09 03:53:47;;;;;;;9.43;3.08;;;;;;;15.94;100.00;101647.63;5169562;28;20023;-74
2022/07/09 03:56:19;;;;;;;13.35;3.05;;;;;;;15.87;100.00;101646.13;5172501;28;20030;-74
2022/07/09 03:58:50;;;;;;;11.35;3.08;;;;;;;15.87;100.00;101648.78;5164543;28;20561;-74
2022/07/09 04:01:20;;;;;;;8.57;2.53;;;;;;;15.84;100.00;101641.00;5171917;28;20176;-73
2022/07/09 04:03:50;;;;;;;10.18;3.13;;;;;;;15.94;100.00;101646.75;5169689;28;20527;-74
2022/07/09 04:06:21;;;;;;;11.82;3.22;;;;;;;15.88;100.00;101632.03;5172893;28;20112;-73
2022/07/09 04:08:51;;;;;;;11.63;3.20;;;;;;;15.90;100.00;101635.47;5167779;28;20033;-74
2022/07/09 04:11:22;;;;;;;8.15;2.92;;;;;;;16.02;100.00;101632.34;5168435;28;20029;-74
2022/07/09 04:13:52;;;;;;;9.38;2.90;;;;;;;16.11;100.00;101631.09;5169352;28;20023;-74
2022/07/09 04:16:22;;;;;;;11.10;2.90;;;;;;;16.08;100.00;101625.94;5172219;28;20029;-74
2022/07/09 04:18:53;;;;;;;9.88;3.28;;;;;;;16.05;100.00;101619.00;5169081;28;20045;-74
2022/07/09 04:21:23;;;;;;;8.80;2.90;;;;;;;16.15;100.00;101625.63;5172137;28;20069;-74
2022/07/09 04:23:53;;;;;;;9.70;3.10;;;;;;;16.10;100.00;101619.72;5167570;28;20029;-74
2022/07/09 04:26:24;;;;;;;11.27;2.80;;;;;;;16.20;100.00;101625.44;5171995;28;20380;-74
2022/07/09 04:28:54;;;;;;;7.70;2.90;;;;;;;16.34;100.00;101620.44;5169000;28;20484;-74
2022/07/09 04:31:24;;;;;;;10.77;3.47;;;;;;;16.33;100.00;101624.00;5171728;28;20054;-74
2022/07/09 04:33:55;;;;;;;12.30;3.00;;;;;;;16.30;100.00;101637.31;5169121;28;20385;-74
2022/07/09 04:36:25;;;;;;;12.23;3.10;;;;;;;16.22;100.00;101635.00;5171250;28;20036;-74
2022/07/09 04:38:56;;;;;;;9.10;2.72;;;;;;;16.18;100.00;101630.78;5168733;28;20138;-74
2022/07/09 04:41:28;;;;;;;8.18;3.00;;;;;;;16.16;100.00;101637.03;5167269;28;20446;-74
2022/07/09 04:43:58;;;;;;;10.88;2.90;;;;;;;16.15;100.00;101630.91;5170038;28;20079;-74
2022/07/09 04:46:30;;;;;;;11.77;3.00;;;;;;;16.12;100.00;101636.31;5171154;28;20072;-74
2022/07/09 04:49:00;;;;;;;12.43;3.05;;;;;;;16.30;100.00;101627.63;5169899;28;20034;-74
2022/07/09 04:51:31;;;;;;;12.23;2.90;;;;;;;16.33;100.00;101639.81;5170766;28;20052;-75
2022/07/09 04:54:01;;;;;;;13.55;3.55;;;;;;;16.31;100.00;101634.63;5169829;28;20073;-74
2022/07/09 04:56:31;;;;;;;12.95;3.08;;;;;;;16.17;100.00;101639.63;5170073;28;20038;-72
2022/07/09 04:59:02;;;;;;;9.57;2.53;;;;;;;16.27;100.00;101638.31;5169687;28;20241;-74
2022/07/09 05:01:33;;;;;;;12.25;3.15;;;;;;;16.26;100.00;101631.34;5170236;28;20034;-74
2022/07/09 05:04:03;;;;;;;9.20;2.95;;;;;;;16.42;100.00;101632.41;5169513;28;20030;-74
2022/07/09 05:06:33;;;;;;;8.07;2.25;;;;;;;16.44;100.00;101635.88;5169806;28;20474;-74
2022/07/09 05:09:04;;;;;;;8.48;2.33;;;;;;;16.49;100.00;101631.25;5169429;28;20512;-74
2022/07/09 05:11:34;;;;;;;8.02;2.58;;;;;;;16.56;100.00;101622.13;5165672;28;20057;-75
2022/07/09 05:14:04;;;;;;;12.35;3.10;;;;;;;16.62;100.00;101611.31;5170040;28;20030;-75
2022/07/09 05:16:35;;;;;;;8.75;2.78;;;;;;;16.59;100.00;101615.88;5164135;28;20033;-72
2022/07/09 05:19:05;;;;;;;11.65;2.70;;;;;;;16.66;100.00;101618.16;5170371;28;20034;-74
2022/07/09 05:21:36;;;;;;;11.20;2.90;;;;;;;16.48;100.00;101611.06;5169608;28;20079;-74
2022/07/09 05:24:07;;;;;;;10.18;2.80;;;;;;;16.65;100.00;101624.38;5169390;28;20030;-74
2022/07/09 05:26:37;;;;;;;12.38;2.70;;;;;;;16.77;100.00;101613.28;5169131;28;20241;-74
2022/07/09 05:29:07;;;;;;;10.52;2.67;;;;;;;16.95;100.00;101617.75;5169787;28;20435;-74
2022/07/09 05:31:38;;;;;;;15.30;2.95;;;;;;;16.88;100.00;101605.72;5168975;28;20056;-74
2022/07/09 05:34:08;;;;;;;11.93;2.90;;;;;;;17.05;100.00;101605.81;5170255;28;20574;-74
2022/07/09 05:36:39;;;;;;;11.20;2.40;;;;;;;16.95;100.00;101600.09;5168526;28;20172;-74
2022/07/09 05:39:09;;;;;;;11.80;2.85;;;;;;;17.13;100.00;101598.41;5169580;28;20121;-74
2022/07/09 05:41:39;;;;;;;8.07;2.53;;;;;;;17.15;100.00;101599.19;5164592;28;20113;-74
2022/07/09 05:44:10;;;;;;;14.30;2.78;;;;;;;17.09;100.00;101594.19;5170294;28;20017;-74
2022/07/09 05:46:41;;;;;;;11.80;2.35;;;;;;;16.97;100.00;101595.59;5168578;28;20022;-74
2022/07/09 05:49:11;;;;;;;11.35;3.28;;;;;;;17.06;100.00;101599.59;5164392;28;20030;-74
2022/07/09 05:51:41;;;;;;;7.20;2.55;;;;;;;17.03;100.00;101605.91;5167186;28;20029;-74
2022/07/09 05:54:12;;;;;;;7.05;2.47;;;;;;;17.30;100.00;101607.25;5170379;28;20022;-74
2022/07/09 05:56:42;;;;;;;9.52;2.65;;;;;;;17.18;100.00;101610.47;5168059;28;20057;-74
2022/07/09 05:59:12;;;;;;;7.40;2.40;;;;;;;17.33;100.00;101601.81;5169169;28;20026;-74
2022/07/09 06:01:43;;;;;;;9.57;3.03;;;;;;;17.41;100.00;101606.78;5164642;28;20031;-74
2022/07/09 06:04:13;;;;;;;12.63;3.38;;;;;;;17.55;100.00;101620.22;5167444;28;20121;-74
2022/07/09 06:06:43;;;;;;;8.30;3.22;;;;;;;17.38;100.00;101620.16;5161481;28;20156;-74
2022/07/09 06:09:14;;;;;;;11.25;3.40;;;;;;;17.23;100.00;101623.47;5165768;28;20018;-74
2022/07/09 06:11:44;;;;;;;8.25;3.33;;;;;;;17.33;100.00;101627.41;5169956;28;20124;-74
2022/07/09 06:14:15;;;;;;;11.13;3.55;;;;;;;17.51;100.00;101608.91;5166765;28;20026;-74
2022/07/09 06:16:46;;;;;;;8.25;2.97;;;;;;;17.64;100.00;101609.22;5173424;28;20104;-74
2022/07/09 06:19:17;;;;;;;12.85;3.42;;;;;;;17.75;100.00;101596.31;5165686;28;20195;-74
2022/07/09 06:21:47;;;;;;;11.68;3.25;;;;;;;17.55;100.00;101604.34;5171803;28;20492;-74
2022/07/09 06:24:17;;;;;;;8.18;3.05;;;;;;;17.74;100.00;101589.31;5167374;28;20058;-73
2022/07/09 06:26:48;;;;;;;8.50;3.20;;;;;;;18.02;100.00;101589.69;5168653;28;20065;-74
2022/07/09 06:29:19;;;;;;;11.20;3.40;;;;;;;18.09;100.00;101599.00;5167682;28;20034;-74
2022/07/09 06:31:49;;;;;;;8.70;2.80;;;;;;;18.09;100.00;101588.41;5165556;28;20033;-74
2022/07/09 06:34:20;;;;;;;8.52;2.85;;;;;;;18.04;100.00;101599.22;5166647;28;20544;-74
2022/07/09 06:36:50;;;;;;;5.63;2.70;;;;;;;18.41;100.00;101590.31;5167879;28;20116;-74
2022/07/09 06:42:10;;;;;;;9.50;2.70;;;;;;;18.74;98.93;101594.75;5161845;28;21015;-74
2022/07/09 06:44:41;;;;;;;8.35;2.70;;;;;;;18.99;98.42;101596.00;5168975;28;20026;-74
2022/07/09 06:47:12;;;;;;;6.43;2.38;;;;;;;18.86;97.96;101594.94;5167390;28;20022;-74
2022/07/09 06:49:42;;;;;;;7.45;2.50;;;;;;;18.86;98.18;101600.25;5167046;28;20055;-74
2022/07/09 06:52:13;;;;;;;7.90;2.33;;;;;;;20.05;93.95;101601.50;5167385;28;20033;-74
2022/07/09 06:54:43;;;;;;;7.18;2.40;;;;;;;20.31;91.30;101590.22;5168565;28;20423;-74
2022/07/09 06:57:15;;;;;;;9.90;2.10;;;;;;;21.18;87.58;101588.31;5167076;28;20444;-74
2022/07/09 06:59:46;;;;;;;6.35;2.30;;;;;;;20.81;87.92;101591.53;5173798;28;20069;-73
2022/07/09 07:02:16;;;;;;;5.10;1.70;;;;;;;19.86;89.24;101600.81;5170930;28;20480;-74
2022/07/09 07:04:47;;;;;;;8.73;2.40;;;;;;;19.38;93.08;101603.59;5174072;28;20101;-74
2022/07/09 07:07:17;;;;;;;4.03;1.80;;;;;;;19.03;95.05;101594.03;5168186;28;20030;-73
2022/07/09 07:09:47;;;;;;;6.63;2.28;;;;;;;19.02;96.22;101600.25;5169449;28;20275;-75
2022/07/09 07:12:18;;;;;;;14.27;2.00;;;;;;;19.10;97.34;101593.59;5171148;28;20034;-74
2022/07/09 07:14:48;;;;;;;4.22;1.45;;;;;;;19.17;97.78;101581.78;5170158;28;20038;-74
2022/07/09 07:17:18;;;;;;;5.35;1.75;;;;;;;19.35;96.56;101575.47;5173476;28;20080;-74
2022/07/09 07:19:48;;;;;;;5.45;1.80;;;;;;;19.74;95.85;101578.50;5170073;28;20026;-74
2022/07/09 07:22:19;;;;;;;4.55;1.70;;;;;;;19.58;95.54;101580.31;5173933;28;20180;-74
2022/07/09 07:24:49;;;;;;;5.88;1.48;;;;;;;19.86;93.84;101577.81;5169499;28;20030;-74
2022/07/09 07:27:19;;;;;;;6.78;1.50;;;;;;;19.80;92.18;101578.16;5165036;28;20414;-72
2022/07/09 07:29:50;;;;;;;5.43;1.45;;;;;;;19.71;90.90;101578.69;5172885;28;20479;-74
2022/07/09 07:32:20;;;;;;;3.58;1.65;;;;;;;19.55;91.82;101575.19;5169775;28;20273;-74
2022/07/09 07:34:50;;;;;;;6.68;1.63;;;;;;;20.53;89.73;101575.56;5173719;28;20030;-74
2022/07/09 07:37:21;;;;;;;6.13;1.80;;;;;;;20.82;86.74;101574.63;5171935;28;20482;-74
2022/07/09 07:39:51;;;;;;;5.00;1.42;;;;;;;22.02;83.93;101567.66;5165098;28;20046;-74
2022/07/09 07:42:21;;;;;;;6.80;1.42;;;;;;;21.70;83.35;101573.41;5157224;28;20026;-74
2022/07/09 07:44:52;;;;;;;7.65;1.60;;;;;;;21.22;84.91;101572.06;5166040;28;20030;-73
2022/07/09 07:47:22;;;;;;;4.72;1.30;;;;;;;21.69;84.67;101564.56;5171674;28;20498;-74
2022/07/09 07:49:52;;;;;;;6.22;1.40;;;;;;;21.89;82.30;101557.94;5173505;28;20038;-74
2022/07/09 07:52:22;;;;;;;11.88;1.85;;;;;;;21.41;84.93;101563.78;5169475;28;20484;-74
2022/07/09 07:54:53;;;;;;;6.90;1.70;;;;;;;21.62;83.42;101557.06;5168556;28;20054;-74
2022/07/09 07:57:23;;;;;;;5.88;1.83;;;;;;;21.86;83.18;101551.00;5172134;28;20037;-74
2022/07/09 07:59:53;;;;;;;8.60;2.00;;;;;;;20.95;83.70;101551.69;5169566;28;20041;-74
2022/07/09 08:02:24;;;;;;;7.55;2.00;;;;;;;21.21;83.81;101553.56;5172814;28;20395;-72
2022/07/09 08:04:54;;;;;;;10.65;2.35;;;;;;;21.17;84.94;101552.91;5170420;28;20113;-74
2022/07/09 08:07:24;;;;;;;8.65;2.00;;;;;;;21.61;83.28;101552.69;5165718;28;20044;-75
2022/07/09 08:09:55;;;;;;;8.45;2.17;;;;;;;21.42;84.72;101541.53;5170424;28;20104;-75
2022/07/09 08:12:25;;;;;;;6.78;2.22;;;;;;;21.32;84.43;101556.38;5169131;28;20022;-75
2022/07/09 08:14:56;;;;;;;5.68;2.10;;;;;;;20.82;86.25;101562.19;5169938;28;20062;-75
2022/07/09 08:17:26;;;;;;;13.35;2.42;;;;;;;20.86;87.70;101557.59;5171535;28;20169;-75
2022/07/09 08:19:56;;;;;;;7.60;2.05;;;;;;;20.96;86.47;101548.06;5169250;28;20034;-74
2022/07/09 08:22:27;;;;;;;10.50;2.97;;;;;;;20.75;86.62;101552.03;5171912;28;20124;-74
2022/07/09 08:24:57;;;;;;;7.28;1.98;;;;;;;20.49;87.73;101555.44;5168675;28;20391;-72
2022/07/09 08:27:27;;;;;;;8.20;1.92;;;;;;;20.30;88.79;101549.53;5169386;28;20296;-75
2022/07/09 08:29:58;;;;;;;3.55;1.70;;;;;;;20.52;87.84;101547.28;5173310;28;20480;-74
2022/07/09 08:32:29;;;;;;;4.57;1.80;;;;;;;20.47;87.84;101554.66;5169411;28;20030;-74
2022/07/09 08:34:59;;;;;;;7.57;2.05;;;;;;;20.53;88.06;101545.47;5170178;28;20121;-73
2022/07/09 08:37:29;;;;;;;6.95;1.80;;;;;;;20.47;87.76;101549.34;5168227;28;20041;-74
2022/07/09 08:40:00;;;;;;;4.95;1.85;;;;;;;20.23;88.25;101548.19;5167834;28;20048;-74
2022/07/09 08:42:31;;;;;;;5.00;2.00;;;;;;;20.10;89.26;101536.59;5165893;28;20432;-74
2022/07/09 08:45:02;;;;;;;5.18;1.88;;;;;;;20.24;88.03;101536.63;5169881;28;20265;-74
2022/07/09 08:47:32;;;;;;;6.00;1.65;;;;;;;20.44;87.55;101538.09;5170405;28;20026;-73
2022/07/09 08:50:03;;;;;;;4.63;1.73;;;;;;;20.43;88.32;101526.59;5170225;28;20080;-74
2022/07/09 08:52:36;;;;;;;5.07;1.70;;;;;;;20.41;87.77;101527.63;5170428;28;20372;-74
2022/07/09 08:55:07;;;;;;;4.15;1.63;;;;;;;20.10;88.61;101525.13;5168897;28;20034;-74
2022/07/09 08:57:38;;;;;;;4.57;1.50;;;;;;;20.18;89.63;101523.72;5168891;28;20041;-74
2022/07/09 09:00:08;;;;;;;5.68;1.65;;;;;;;20.37;88.91;101513.69;5167168;28;20038;-74
2022/07/09 09:02:39;;;;;;;5.70;1.90;;;;;;;20.56;88.52;101501.00;5162150;28;20075;-74
2022/07/09 09:05:13;;;;;;;5.90;2.13;;;;;;;20.37;87.72;101520.78;5166054;28;20041;-74
2022/07/09 09:07:43;;;;;;;4.35;1.85;;;;;;;20.55;88.37;101517.00;5166914;28;20049;-74
2022/07/09 09:10:25;;;;;;;5.40;1.70;;;;;;;20.54;88.30;101508.22;5167134;28;20430;-74
2022/07/09 09:13:01;;;;;;;5.13;1.52;;;;;;;20.76;87.85;101504.09;5162493;28;20042;-74
2022/07/09 09:15:31;;;;;;;4.13;1.75;;;;;;;20.78;86.94;101514.63;5170423;28;20392;-74
2022/07/09 09:18:02;;;;;;;3.95;1.90;;;;;;;20.54;87.00;101518.84;5168769;28;20045;-73
2022/07/09 09:20:32;;;;;;;6.80;2.17;;;;;;;20.37;87.42;101519.00;5170080;28;20518;-74
2022/07/09 09:23:07;;;;;;;5.25;1.95;;;;;;;20.32;88.07;101521.06;5169769;28;20057;-74
2022/07/09 09:25:37;;;;;;;5.05;2.10;;;;;;;20.52;87.39;101515.41;5170027;28;20364;-74
2022/07/09 09:28:09;;;;;;;4.90;2.17;;;;;;;20.35;88.29;101518.25;5170033;28;20046;-73
2022/07/09 09:30:43;;;;;;;3.65;1.60;;;;;;;20.47;87.58;101509.50;5165555;28;20416;-74
2022/07/09 09:33:18;;;;;;;4.13;1.60;;;;;;;20.54;87.51;101513.53;5169398;28;20516;-75
2022/07/09 09:35:49;;;;;;;3.67;1.55;;;;;;;20.89;85.72;101514.88;5171918;28;20638;-74
2022/07/09 09:38:23;;;;;;;4.35;2.00;;;;;;;21.85;82.99;101498.72;5169513;28;20034;-74
2022/07/09 09:41:06;;;;;;;5.50;1.80;;;;;;;21.62;83.02;101501.16;5163120;28;20034;-75
2022/07/09 09:43:37;;;;;;;2.63;1.30;;;;;;;21.75;81.91;101486.13;5167625;28;20495;-74
2022/07/09 09:46:08;;;;;;;3.33;1.60;;;;;;;22.47;80.95;101478.44;5170071;28;20058;-76
2022/07/09 09:48:40;;;;;;;3.92;1.20;;;;;;;22.69;80.17;101483.00;5167653;28;20034;-76
2022/07/09 09:51:14;;;;;;;5.38;1.50;;;;;;;22.55;78.87;101484.06;5175072;28;20490;-75
2022/07/09 09:53:45;;;;;;;2.40;1.20;;;;;;;22.12;79.08;101480.00;5171711;28;20026;-74
2022/07/09 09:56:16;;;;;;;2.72;1.25;;;;;;;21.76;80.72;101482.50;5174931;28;20029;-75
2022/07/09 09:58:47;;;;;;;5.07;1.40;;;;;;;21.57;81.14;101479.34;5172035;28;20026;-75
2022/07/09 10:01:17;;;;;;;3.63;1.10;;;;;;;21.68;81.32;101479.50;5170872;28;20104;-74
2022/07/09 10:03:49;;;;;;;2.08;1.00;;;;;;;21.78;80.80;101485.91;5171124;28;20034;-75
2022/07/09 10:06:19;;;;;;;3.60;1.05;;;;;;;22.24;79.81;101489.84;5166365;28;20108;-75
2022/07/09 10:08:50;;;;;;;3.13;0.90;;;;;;;22.62;78.81;101480.03;5169256;28;20497;-76
2022/07/09 10:11:21;;;;;;;4.40;1.20;;;;;;;23.26;75.52;101470.84;5170730;28;20434;-75
2022/07/09 10:13:56;;;;;;;1.20;0.70;;;;;;;23.66;73.43;101472.22;5171582;28;20026;-75
2022/07/09 10:16:39;;;;;;;2.10;0.77;;;;;;;23.42;72.84;101467.88;5174291;28;20542;-75
2022/07/09 10:19:09;;;;;;;2.33;1.02;;;;;;;23.50;73.95;101471.66;5173461;28;20120;-75
2022/07/09 10:21:41;;;;;;;4.88;1.33;;;;;;;23.30;74.32;101471.44;5172588;28;20098;-75
2022/07/09 10:24:22;;;;;;;2.30;1.00;;;;;;;23.08;75.99;101465.94;5174015;28;20018;-74
2022/07/09 10:27:02;;;;;;;2.78;1.00;;;;;;;22.89;75.65;101469.13;5168044;28;20030;-75
2022/07/09 10:29:34;;;;;;;4.70;1.00;;;;;;;22.65;75.05;101463.81;5172676;28;20057;-75
2022/07/09 10:32:05;;;;;;;2.60;0.90;;;;;;;22.25;76.36;101475.56;5172789;28;20522;-75
2022/07/09 10:34:55;;;;;;;2.55;0.80;;;;;;;22.01;75.43;101471.88;5172652;28;20026;-75
2022/07/09 10:37:36;;;;;;;2.47;1.00;;;;;;;22.09;75.91;101464.25;5164642;28;20033;-76
2022/07/09 10:40:18;;;;;;;3.53;0.80;;;;;;;22.09;75.47;101473.06;5172111;28;20415;-73
2022/07/09 10:43:00;;;;;;;2.65;0.80;;;;;;;21.80;76.08;101470.69;5169146;28;20034;-75
2022/07/09 10:45:41;;;;;;;1.25;0.82;;;;;;;22.02;77.07;101470.94;5168451;28;20022;-75
2022/07/09 10:48:15;;;;;;;2.83;0.90;;;;;;;22.12;75.16;101464.88;5167184;28;20031;-74
2022/07/09 10:50:46;;;;;;;1.70;0.80;;;;;;;22.23;74.67;101470.31;5169000;28;20037;-75
2022/07/09 10:53:17;;;;;;;2.33;0.90;;;;;;;22.25;74.68;101471.06;5174265;28;20033;-75
2022/07/09 10:55:48;;;;;;;1.95;0.68;;;;;;;22.36;75.18;101456.97;5170783;28;20026;-74
2022/07/09 10:58:20;;;;;;;2.45;0.88;;;;;;;22.94;74.32;101452.75;5169521;28;20034;-75
2022/07/09 11:00:58;;;;;;;4.00;1.23;;;;;;;23.75;73.98;101442.16;5166077;28;20038;-75
2022/07/09 11:03:30;;;;;;;3.17;1.02;;;;;;;23.31;70.63;101447.31;5173277;28;20036;-75
2022/07/09 11:06:01;;;;;;;4.72;0.85;;;;;;;23.20;71.27;101447.25;5172061;28;20062;-75
2022/07/09 11:08:32;;;;;;;2.05;0.90;;;;;;;23.06;72.76;101438.53;5168867;28;20026;-75
2022/07/09 11:11:03;;;;;;;2.70;0.70;;;;;;;22.93;72.21;101437.72;5169577;28;20034;-75
2022/07/09 11:13:33;;;;;;;3.13;0.98;;;;;;;22.50;73.16;101433.78;5171799;28;20030;-75
2022/07/09 11:16:04;;;;;;;2.47;0.80;;;;;;;22.62;71.54;101432.06;5172366;28;20458;-74
2022/07/09 11:18:34;;;;;;;4.22;1.10;;;;;;;22.49;72.38;101420.56;5171644;28;20026;-74
2022/07/09 11:21:05;;;;;;;3.50;1.00;;;;;;;22.79;72.86;101424.53;5172021;28;20036;-74
2022/07/09 11:23:35;;;;;;;7.80;1.25;;;;;;;22.88;73.50;101424.72;5170284;28;20057;-74
2022/07/09 11:26:05;;;;;;;1.90;0.90;;;;;;;23.02;70.87;101415.72;5170883;28;20034;-74
2022/07/09 11:28:36;;;;;;;3.45;1.10;;;;;;;22.76;70.74;101420.28;5170139;28;20026;-75
2022/07/09 11:31:07;;;;;;;2.58;0.70;;;;;;;22.88;70.95;101416.72;5171459;28;20272;-74
2022/07/09 11:36:36;;;;;;;3.22;1.45;;;;;;;22.96;71.98;101417.03;5167236;28;20069;-75
2022/07/09 11:39:06;;;;;;;4.05;1.60;;;;;;;23.16;71.18;101411.09;5170346;28;20452;-75
2022/07/09 11:41:44;;;;;;;2.90;0.90;;;;;;;23.60;68.56;101403.28;5166840;28;20125;-75